Date,TemperatureHighF,TemperatureAvgF,TemperatureLowF,DewpointHighF,DewpointAvgF,DewpointLowF,HumidityHigh,HumidityAvg,HumidityLow,PressureMaxIn,PressureMinIn,WindSpeedMaxMPH,WindSpeedAvgMPH,GustSpeedMaxMPH,PrecipitationSumIn
2013-1-1,49.3,36.8,25.9,27.6,19.5,13.3,87,54,25,30.30,30.21,21,6,21,0.00
2013-1-2,54.3,37.6,26.2,19.3,14.9,10.9,60,42,18,30.28,30.16,16,4,16,0.00
2013-1-3,55.6,37.8,24.1,21.1,13.0,1.2,71,42,11,30.31,30.19,19,4,19,0.00
2013-1-4,55.4,37.1,21.2,19.8,11.3,-1.6,69,40,10,30.36,30.25,8,2,8,0.00
2013-1-5,54.7,39.7,25.0,21.5,11.7,-1.5,60,36,11,30.37,30.18,15,2,15,0.00
2013-1-6,49.1,43.6,38.8,38.4,33.9,16.1,88,71,27,30.18,30.04,24,10,24,0.00
2013-1-7,59.2,42.7,30.9,36.9,26.9,15.6,96,60,19,30.19,30.08,15,3,15,0.00
2013-1-8,65.8,47.6,32.9,31.3,26.8,21.4,64,47,25,30.26,30.14,11,3,11,0.00
2013-1-9,64.8,50.8,36.1,39.4,33.2,28.5,75,54,30,30.26,29.97,18,5,18,0.00
2013-1-10,48.2,39.3,33.6,42.4,29.0,21.1,94,67,46,30.09,29.94,31,14,31,0.01
2013-1-11,41.2,35.5,30.7,25.2,22.3,16.8,72,59,49,30.17,30.07,27,10,27,0.00
2013-1-12,45.7,33.3,23.7,25.2,15.9,8.3,82,52,22,30.18,30.07,14,3,14,0.00
2013-1-13,46.0,30.9,17.8,20.2,13.9,6.3,78,52,24,30.20,30.06,21,4,21,0.00
2013-1-14,39.9,28.7,18.5,7.2,-0.9,-9.9,53,30,12,30.38,30.20,19,6,19,0.00
2013-1-15,50.4,34.2,20.8,15.3,6.8,-1.0,49,32,19,30.51,30.37,21,4,21,0.00
2013-1-16,58.5,41.0,27.5,21.9,15.8,8.6,57,37,22,30.48,30.33,17,4,17,0.00
2013-1-17,63.9,44.7,28.4,22.7,13.3,3.6,61,34,10,30.40,30.27,23,5,23,0.00
2013-1-18,63.9,43.6,27.9,19.5,10.7,3.9,52,30,10,30.34,30.23,15,4,15,0.00
2013-1-19,64.9,43.9,26.4,18.2,10.0,3.0,52,29,10,30.38,30.25,14,3,14,0.00
2013-1-20,64.9,44.1,26.6,17.3,8.5,0.1,50,27,10,30.32,30.19,14,3,14,0.00
2013-1-21,70.5,45.8,27.3,15.3,7.5,-1.2,48,24,10,30.29,30.19,16,4,16,0.00
2013-1-22,67.5,46.5,28.8,13.7,7.8,0.3,41,23,10,30.27,30.17,8,2,8,0.00
2013-1-23,61.9,51.7,40.6,34.4,14.7,6.4,48,24,11,30.23,30.13,8,2,8,0.00
2013-1-24,55.8,51.0,46.0,50.4,47.0,34.0,97,87,47,30.27,30.16,10,3,10,0.26
2013-1-25,51.4,49.7,48.0,50.3,48.5,46.6,99,96,92,30.27,30.08,8,2,8,0.18
2013-1-26,63.3,53.8,50.0,57.1,50.0,46.7,99,88,63,30.08,29.95,18,5,18,0.06
2013-1-27,52.0,44.2,39.0,49.1,35.8,27.2,94,73,54,30.06,29.99,30,13,30,0.00
2013-1-28,46.6,40.7,36.1,30.0,27.9,25.8,71,61,46,30.21,30.05,27,11,27,0.00
2013-1-29,60.6,46.2,33.6,34.7,31.1,26.6,79,58,33,30.29,30.13,21,6,21,0.00
2013-1-30,64.4,47.8,32.9,39.0,33.5,29.2,89,61,31,30.40,30.28,11,2,11,0.00
2013-1-31,67.5,50.0,34.7,36.7,34.0,29.8,84,58,30,30.35,30.22,14,3,14,0.00
2013-2-1,66.6,51.4,36.3,38.6,35.0,30.9,82,56,31,30.30,30.22,15,2,15,0.00
2013-2-2,63.5,54.2,44.4,46.2,37.8,34.3,78,56,35,30.34,30.25,10,2,10,0.04
2013-2-3,69.3,56.0,43.7,48.5,39.1,27.3,90,57,24,30.26,30.11,12,3,12,0.00
2013-2-4,70.7,54.0,38.7,37.6,30.6,23.2,72,44,17,30.20,30.08,11,3,11,0.00
2013-2-5,69.6,56.7,42.4,43.8,34.3,26.4,76,45,20,30.11,29.99,26,8,26,0.00
2013-2-6,66.7,52.6,40.6,41.7,25.6,-0.5,78,41,10,30.14,30.04,14,4,14,0.00
2013-2-7,63.0,48.8,33.4,44.1,28.7,9.6,82,49,23,30.14,29.89,24,8,24,0.00
2013-2-8,47.1,39.5,34.7,37.9,32.9,28.9,96,78,53,29.89,29.79,29,12,29,0.01
2013-2-9,52.3,42.1,34.5,32.8,29.1,21.5,80,62,33,30.00,29.85,23,11,25,0.00
2013-2-10,53.6,43.3,32.7,37.3,30.6,21.0,86,63,30,30.00,29.92,21,7,21,0.00
2013-2-11,53.1,40.3,27.5,32.6,15.9,-0.7,86,46,11,30.19,30.00,21,5,21,0.00
2013-2-12,58.1,41.9,26.2,18.1,12.0,6.2,53,32,13,30.30,30.18,13,3,13,0.00
2013-2-13,65.3,46.9,31.1,28.0,20.1,12.1,68,39,13,30.26,30.12,11,3,11,0.00
2013-2-14,68.2,50.9,33.6,28.9,23.4,18.1,63,38,16,30.23,30.12,22,5,22,0.00
2013-2-15,68.4,52.5,33.8,29.0,20.0,10.0,67,33,11,30.28,30.21,26,6,26,0.00
2013-2-16,69.3,51.1,34.9,25.0,18.5,11.6,55,31,11,30.27,29.99,9,3,9,0.00
2013-2-17,68.0,54.5,38.8,40.1,23.7,9.0,55,33,10,29.99,29.88,23,8,23,0.00
2013-2-18,65.8,52.4,42.1,38.1,33.2,27.7,75,50,28,29.99,29.85,23,7,23,0.00
2013-2-19,50.4,43.3,35.1,39.9,35.9,30.6,96,76,55,29.88,29.64,30,15,30,0.11
2013-2-20,48.0,39.5,32.9,31.0,27.6,24.6,85,63,42,29.93,29.63,28,15,30,0.00
2013-2-21,54.1,43.7,34.0,31.9,26.1,15.4,72,52,22,30.06,28.46,25,7,25,0.00
2013-2-22,62.4,46.1,28.8,30.0,24.5,13.3,76,48,15,30.15,30.05,13,3,13,0.00
2013-2-23,62.1,51.1,40.1,38.1,31.2,23.4,70,47,33,30.10,29.88,34,12,34,0.00
2013-2-24,61.7,44.7,35.1,30.8,6.3,-5.8,73,24,10,30.18,30.05,30,10,30,0.00
2013-2-25,67.1,49.4,30.7,24.3,12.3,1.7,42,24,10,30.19,30.02,24,6,24,0.00
2013-2-26,63.5,49.1,33.3,30.5,16.9,3.0,60,32,10,30.16,30.02,24,6,24,0.00
2013-2-27,61.9,44.4,29.8,18.1,10.9,3.1,49,30,10,30.30,30.16,15,3,15,0.00
2013-2-28,68.5,49.9,32.4,20.9,12.4,2.7,49,26,10,30.37,30.28,14,4,14,0.00
2013-3-1,74.7,56.8,41.2,28.0,19.4,11.4,42,26,10,30.37,30.23,24,6,24,0.00
2013-3-2,77.2,62.1,39.7,29.1,23.0,16.7,52,24,11,30.29,30.08,23,6,23,0.00
2013-3-3,69.3,61.3,52.2,42.1,32.1,15.6,65,36,15,30.10,29.93,30,12,30,0.00
2013-3-4,72.7,58.6,45.3,46.9,40.4,27.5,76,54,19,30.05,29.97,17,6,17,0.00
2013-3-5,69.1,54.9,44.1,46.2,42.8,36.3,87,66,32,30.04,29.93,29,9,29,0.00
2013-3-6,54.1,47.8,42.6,44.8,41.7,36.5,91,80,65,30.03,29.93,32,16,32,0.00
2013-3-7,54.1,46.9,42.8,43.5,39.7,35.0,93,77,51,29.93,29.78,27,12,27,0.00
2013-3-8,49.5,42.7,36.7,38.9,36.7,34.8,96,80,64,29.94,29.73,25,10,25,0.25
2013-3-9,57.4,46.8,38.3,38.2,34.9,30.6,82,65,42,30.19,29.94,22,9,22,0.00
2013-3-10,68.0,51.0,33.1,35.0,23.3,8.3,81,43,10,30.29,30.17,17,5,17,0.00
2013-3-11,75.0,55.1,-8.1,35.1,24.6,-45.5,69,36,10,30.21,30.05,102,4,102,0.00
2013-3-12,81.0,60.4,39.6,35.4,26.7,16.6,64,33,10,30.16,30.05,11,3,11,0.00
2013-3-13,84.6,64.2,44.8,32.3,27.3,19.9,54,29,10,30.21,30.08,12,3,12,0.00
2013-3-14,88.2,68.1,47.5,37.9,31.2,23.4,51,28,10,30.18,30.04,16,4,16,0.00
2013-3-15,84.6,70.7,58.5,44.2,32.9,20.3,41,27,10,30.06,29.93,24,8,24,0.00
2013-3-16,78.8,67.3,54.1,42.1,31.2,20.8,47,28,12,29.98,29.88,30,10,30,0.00
2013-3-17,79.3,64.7,55.6,45.7,28.6,12.1,60,30,10,30.00,29.90,26,12,26,0.00
2013-3-18,77.2,63.5,47.8,45.3,28.0,14.0,51,28,10,30.04,29.94,21,7,21,0.00
2013-3-19,77.5,65.4,54.3,45.4,32.5,21.2,44,30,18,30.08,29.99,23,10,23,0.00
2013-3-20,73.8,63.4,54.0,43.6,38.7,25.6,61,42,19,32.31,29.97,26,10,26,0.00
2013-3-21,76.5,61.3,51.6,46.6,35.1,6.0,75,44,10,29.98,29.80,27,12,27,0.00
2013-3-22,72.3,56.7,43.5,41.9,30.1,12.1,68,40,11,29.95,29.82,36,12,36,0.09
2013-3-23,73.2,56.5,39.6,31.0,18.6,6.3,45,26,10,30.05,29.93,19,5,19,0.00
2013-3-24,76.3,64.6,42.3,28.3,16.4,-3.3,31,17,10,30.05,29.91,14,5,14,0.00
2013-3-25,78.4,63.8,46.4,37.2,27.1,16.3,41,26,10,29.97,29.88,22,8,22,0.00
2013-3-26,75.6,64.6,52.9,45.7,33.5,19.6,59,34,13,29.93,29.86,24,8,24,0.00
2013-3-27,70.2,61.9,55.2,49.0,43.7,38.8,74,52,37,30.00,29.88,27,12,27,0.00
2013-3-28,75.4,62.5,51.3,47.3,43.3,34.6,81,53,24,30.05,29.97,26,8,26,0.00
2013-3-29,79.7,65.2,47.7,45.9,41.6,34.1,74,46,23,30.09,30.00,26,8,26,0.00
2013-3-30,76.3,65.8,56.1,43.7,37.3,23.8,54,37,16,30.07,29.99,30,10,30,0.00
2013-3-31,61.5,55.8,50.2,53.0,47.1,33.0,93,74,42,30.08,29.98,25,12,25,0.00
2013-4-1,64.9,54.8,46.2,48.5,44.6,41.8,89,70,45,30.09,30.01,27,12,27,0.00
2013-4-2,76.8,61.2,47.7,46.2,40.1,33.6,82,49,22,30.07,29.97,23,6,23,0.00
2013-4-3,83.7,65.7,46.9,41.0,35.2,27.5,58,35,16,30.09,29.98,18,6,18,0.00
2013-4-4,75.6,67.2,59.2,50.3,38.9,17.9,69,38,15,30.06,29.97,28,11,28,0.00
2013-4-5,72.0,61.9,54.3,50.0,44.4,29.7,78,54,29,30.05,29.96,28,13,28,0.00
2013-4-6,75.6,62.0,52.7,45.9,41.2,34.4,72,49,24,30.06,29.95,29,14,29,0.00
2013-4-7,75.0,62.5,53.8,45.5,39.5,26.0,71,46,19,29.99,29.80,30,13,30,0.00
2013-4-8,59.2,51.0,45.7,44.9,37.0,26.9,83,59,42,29.83,29.67,43,20,43,0.84
2013-4-9,69.6,55.0,43.9,36.0,24.6,8.3,63,35,10,30.05,29.83,25,9,25,0.00
2013-4-10,79.5,60.9,40.6,34.0,22.1,8.3,53,27,10,30.14,29.99,30,5,30,0.00
2013-4-11,79.3,69.0,61.5,46.2,39.9,30.8,56,36,20,30.00,29.75,24,10,24,0.00
2013-4-12,85.3,67.9,50.2,45.8,40.2,21.4,69,41,10,29.89,29.77,26,6,26,0.00
2013-4-13,77.2,67.4,57.9,48.1,43.4,33.1,66,43,22,29.87,29.75,28,12,28,0.00
2013-4-14,74.5,61.1,51.6,49.0,46.3,39.1,82,60,29,29.80,29.72,32,17,32,0.00
2013-4-15,61.0,53.9,46.8,47.7,44.8,41.0,88,72,56,29.81,29.74,38,18,38,0.02
2013-4-16,56.1,48.6,39.7,43.1,29.4,20.8,88,49,27,29.98,29.79,33,14,33,0.00
2013-4-17,64.8,52.4,40.6,28.0,20.8,6.3,56,32,11,30.16,29.98,17,7,17,0.00
2013-4-18,69.6,54.6,36.7,24.4,13.1,2.8,55,24,10,30.25,30.15,24,6,24,0.00
2013-4-19,80.8,62.4,41.9,30.5,19.3,8.9,44,22,10,30.21,30.00,27,6,27,0.00
2013-4-20,85.5,71.3,53.8,38.8,30.0,18.9,44,24,10,30.04,29.93,22,7,22,0.00
2013-4-21,88.2,71.1,52.0,38.6,29.4,19.7,44,24,10,30.02,29.93,27,8,27,0.00
2013-4-22,86.4,73.9,63.7,48.4,34.5,11.6,49,26,10,29.98,29.83,28,12,28,0.00
2013-4-23,81.3,70.3,54.9,45.4,30.0,14.1,59,28,10,29.99,29.85,26,10,26,0.00
2013-4-24,83.1,66.7,54.0,51.7,40.4,20.3,75,41,10,29.91,29.78,31,9,31,0.00
2013-4-25,76.6,63.1,51.4,48.0,44.7,37.8,85,54,27,30.04,29.85,28,14,28,0.00
2013-4-26,87.6,70.9,57.0,48.0,40.0,21.4,63,38,10,30.14,30.04,24,8,24,0.00
2013-4-27,91.8,75.2,56.7,43.8,34.2,24.3,47,26,10,30.17,30.01,18,6,18,0.00
2013-4-28,73.4,73.4,73.4,37.4,37.4,37.4,27,27,27,30.03,30.03,8,8,10,0.00
2013-4-29,91.6,76.7,70.7,50.7,38.4,26.4,47,27,10,30.03,29.85,25,10,25,0.00
2013-4-30,84.6,71.6,59.2,52.4,46.2,38.0,71,43,22,29.91,29.82,30,17,30,0.00
2013-5-1,83.5,69.9,52.2,49.6,26.8,3.2,73,29,10,30.22,29.91,28,11,28,0.00
2013-5-2,80.1,67.4,50.4,18.7,10.5,-0.9,22,11,10,30.36,30.21,29,10,29,0.00
2013-5-3,89.6,69.9,45.3,25.9,14.3,1.3,22,12,10,30.22,29.92,24,5,24,0.00
2013-5-4,81.1,71.8,58.6,45.1,31.4,11.5,54,25,10,29.92,29.75,34,15,34,0.00
2013-5-5,65.3,56.7,51.6,47.7,45.0,35.5,84,66,40,29.97,29.80,28,11,28,0.00
2013-5-6,62.4,54.5,49.8,51.5,47.9,44.1,98,79,60,30.03,29.93,30,11,30,0.15
2013-5-7,66.0,56.3,49.6,49.0,46.0,43.4,87,69,46,30.08,30.01,31,13,31,0.00
2013-5-8,70.3,59.5,50.5,50.6,47.3,44.1,85,65,45,30.14,30.06,27,12,27,0.00
2013-5-9,78.3,64.8,53.6,52.9,48.9,44.8,79,59,32,30.16,30.06,22,7,22,0.00
2013-5-10,88.9,72.6,54.3,52.8,47.2,30.9,78,45,13,30.20,30.09,19,6,19,0.00
2013-5-11,93.6,79.5,59.0,51.8,42.1,27.3,58,31,10,30.22,30.11,19,5,19,0.00
2013-5-12,97.3,83.5,67.1,53.5,43.0,28.5,52,27,10,30.23,30.08,23,6,23,0.00
2013-5-13,97.3,84.4,67.3,48.9,39.0,27.3,44,23,10,30.14,30.03,26,8,26,0.00
2013-5-14,86.9,77.9,69.4,44.7,32.7,19.5,41,21,10,30.06,29.97,31,11,31,0.00
2013-5-15,86.2,74.6,66.2,55.2,47.6,39.9,59,40,21,30.06,29.99,28,15,28,0.00
2013-5-16,79.0,68.7,59.5,54.9,48.2,39.9,74,49,32,30.03,29.94,25,10,25,0.00
2013-5-17,74.7,64.6,57.4,54.8,49.2,45.4,72,58,39,30.04,29.97,28,16,28,0.00
2013-5-18,84.0,69.6,56.1,48.9,31.8,19.9,66,29,10,30.09,30.03,26,10,26,0.00
2013-5-19,87.3,72.9,61.9,43.1,33.0,22.5,43,25,10,30.09,29.99,28,10,28,0.00
2013-5-20,88.2,74.2,54.3,49.1,33.7,21.4,54,27,10,30.14,30.00,24,7,24,0.00
2013-5-21,86.5,75.2,61.0,51.3,40.1,30.9,47,30,15,30.05,29.90,30,10,30,0.00
2013-5-22,77.4,67.2,56.5,55.3,42.9,28.8,70,42,26,29.94,29.83,30,10,30,0.00
2013-5-23,73.6,62.0,49.6,51.1,39.7,22.8,68,45,23,30.00,29.88,24,10,24,0.00
2013-5-24,77.2,64.3,50.2,48.0,37.9,29.3,60,39,19,30.02,29.94,30,10,30,0.00
2013-5-25,75.6,65.6,55.9,49.8,42.9,30.0,65,45,27,30.05,29.99,27,13,27,0.00
2013-5-26,77.2,66.7,55.9,53.9,45.8,38.3,67,48,27,30.08,30.02,26,13,26,0.00
2013-5-27,83.7,69.9,59.5,47.1,40.5,28.8,61,37,15,30.06,29.95,30,12,30,0.01
2013-5-28,75.4,66.8,59.0,52.0,48.0,36.3,71,52,28,29.99,29.85,39,16,39,0.15
2013-5-29,81.0,71.1,62.8,52.5,47.2,37.2,69,44,25,29.97,29.85,36,16,36,0.00
2013-5-30,92.3,77.1,60.4,50.8,34.6,14.1,51,25,10,29.99,29.89,33,10,33,0.00
2013-5-31,97.2,80.8,61.3,52.6,33.3,20.7,48,21,10,30.03,29.93,21,6,21,0.00
2013-6-1,101.3,83.1,61.9,50.5,39.5,27.4,53,26,10,30.02,29.88,21,5,21,0.00
2013-6-2,91.9,82.1,72.3,54.0,44.9,33.4,40,27,18,29.91,29.78,34,11,34,0.00
2013-6-3,88.9,77.9,68.0,52.8,46.7,40.2,48,34,22,29.93,29.82,28,12,28,0.00
2013-6-4,91.0,76.9,64.0,50.9,41.2,21.3,60,31,10,29.99,29.90,30,11,30,0.00
2013-6-5,96.8,81.8,69.1,54.1,45.4,36.4,50,29,15,30.02,29.93,29,9,29,0.00
2013-6-6,99.7,84.1,72.9,56.7,51.3,41.3,51,35,15,30.00,29.89,27,10,27,0.00
2013-6-7,106.5,87.5,68.9,55.4,47.5,28.4,55,30,10,29.96,29.84,25,8,25,0.00
2013-6-13,70.7,68.0,65.7,50.9,47.6,41.9,56,48,36,29.92,29.88,10,3,10,0.00
2013-6-14,93.0,78.3,55.9,49.5,34.5,22.9,51,23,10,29.91,29.80,24,7,24,0.00
2013-6-15,87.4,87.4,87.4,38.8,38.8,38.8,18,18,18,29.80,29.80,11,11,21,0.00
2013-6-16,87.4,87.4,87.4,38.8,38.8,38.8,18,18,18,29.80,29.80,11,11,21,0.00
2013-6-17,87.4,87.4,87.4,38.8,38.8,38.8,18,18,18,29.80,29.80,11,11,21,0.00
2013-6-18,87.4,87.4,87.4,38.8,38.8,38.8,18,18,18,29.80,29.80,11,11,21,0.00
2013-6-19,87.4,87.4,87.4,38.8,38.8,38.8,18,18,18,29.80,29.80,11,11,21,0.00
2013-6-20,87.4,86.5,70.9,38.8,38.5,33.3,26,18,18,29.93,29.80,19,11,21,0.00
2013-6-21,89.6,76.9,60.4,53.6,39.9,29.4,44,28,12,29.93,29.86,23,9,23,0.00
2013-6-22,93.9,79.6,66.7,56.6,42.3,27.1,51,29,10,29.93,29.83,21,8,21,0.00
2013-6-23,83.3,74.3,66.2,57.2,50.8,44.6,70,45,30,29.87,29.80,28,15,28,0.00
2013-6-24,74.5,66.8,58.3,59.4,56.1,52.0,86,69,55,29.93,29.82,27,13,27,0.00
2013-6-25,91.2,77.4,64.0,61.2,57.6,53.9,77,52,33,29.99,29.92,23,12,27,0.00
2013-6-26,97.3,84.2,68.2,63.0,58.9,53.3,69,44,24,30.04,29.97,30,8,30,0.00
2013-6-27,100.4,87.2,72.9,60.3,57.4,52.4,57,38,21,30.08,30.03,24,7,24,0.00
2013-6-28,105.1,90.3,74.5,61.9,55.9,45.6,53,33,19,30.07,29.93,26,7,26,0.00
2013-6-29,108.1,92.9,74.1,58.5,52.7,41.9,48,28,11,29.99,29.87,23,6,23,0.00
2013-6-30,110.8,93.8,76.5,55.5,48.9,36.5,35,23,10,29.92,29.81,22,7,22,0.00
2013-7-1,104.4,91.0,81.7,58.1,53.0,41.1,43,28,18,29.95,29.85,31,12,31,0.00
2013-7-2,100.4,90.4,81.9,56.8,51.3,44.6,35,27,16,30.02,29.93,34,13,34,0.00
2013-7-3,104.9,91.6,84.0,57.9,54.1,51.0,40,29,18,29.97,29.83,28,11,28,0.00
2013-7-4,102.6,90.1,81.1,58.1,55.4,53.1,41,32,22,29.88,29.77,32,14,32,0.00
2013-7-5,95.7,86.1,78.8,60.4,56.0,52.1,44,36,29,29.85,29.79,30,14,30,0.00
2013-7-6,95.7,86.0,79.3,61.6,52.4,43.6,45,32,18,29.85,29.79,26,11,29,0.00
2013-7-7,98.8,87.1,72.1,52.5,44.1,33.5,46,25,11,29.92,29.83,28,10,28,0.00
2013-7-8,100.8,89.7,77.2,46.3,39.2,32.3,32,19,10,30.04,29.92,46,9,46,0.00
2013-7-9,103.1,88.8,70.5,54.0,40.0,30.1,31,19,10,30.08,29.99,27,8,27,0.00
2013-7-10,99.5,86.5,77.2,58.6,47.3,37.7,48,27,12,30.04,29.92,29,9,29,0.00
2013-7-11,90.9,80.4,72.9,59.1,55.0,47.5,61,43,29,30.00,29.91,27,9,27,0.00
2013-7-12,93.6,82.5,72.5,58.5,52.0,34.1,61,37,13,29.97,29.89,31,11,31,0.00
2013-7-13,99.0,86.7,71.8,53.7,47.5,35.0,49,28,14,30.00,29.91,24,8,24,0.00
2013-7-14,101.1,88.5,72.3,44.1,40.1,32.4,31,19,10,30.00,29.89,22,7,22,0.00
2013-7-15,93.2,84.5,73.6,45.8,41.1,34.9,32,22,15,29.93,29.86,33,11,33,0.00
2013-7-16,91.2,83.4,66.0,42.0,25.2,11.4,30,13,10,29.96,29.89,26,13,26,0.00
2013-7-17,90.5,90.5,90.5,26.6,26.6,26.6,10,10,10,29.95,29.95,20,20,22,0.00
2013-7-18,90.5,90.5,90.5,26.6,26.6,26.6,10,10,10,29.95,29.95,20,20,22,0.00
2013-7-19,90.5,90.5,90.5,26.6,26.6,26.6,10,10,10,29.95,29.95,20,20,22,0.00
2013-7-20,90.5,90.5,90.5,26.6,26.6,26.6,10,10,10,29.95,29.95,20,20,22,0.00
2013-7-21,90.5,90.5,90.5,26.6,26.6,26.6,10,10,10,29.95,29.95,20,20,22,0.00
2013-7-22,90.5,90.5,90.5,26.6,26.6,26.6,10,10,10,29.95,29.95,20,20,22,0.00
2013-7-23,90.5,90.5,90.5,26.6,26.6,26.6,10,10,10,29.95,29.95,20,20,22,0.00
2013-7-24,90.5,90.5,90.5,26.6,26.6,26.6,10,10,10,29.95,29.95,20,20,22,0.00
2013-7-25,90.5,90.5,90.5,26.6,26.6,26.6,10,10,10,29.95,29.95,20,20,22,0.00
2013-7-26,90.5,90.5,90.5,26.6,26.6,26.6,10,10,10,29.95,29.95,20,20,22,0.00
2013-7-27,90.5,90.5,90.5,26.6,26.6,26.6,10,10,10,29.95,29.95,20,20,22,0.00
2013-7-28,90.5,90.5,90.5,26.6,26.6,26.6,10,10,10,29.95,29.95,20,20,22,0.00
2013-7-29,90.5,90.5,90.5,26.6,26.6,26.6,10,10,10,29.95,29.95,20,20,22,0.00
2013-7-30,90.5,90.5,90.5,26.6,26.6,26.6,10,10,10,29.95,29.95,20,20,22,0.00
2013-7-31,90.5,90.5,90.5,26.6,26.6,26.6,10,10,10,29.95,29.95,20,20,22,0.00
2013-8-1,90.5,90.5,90.5,26.6,26.6,26.6,10,10,10,29.95,29.95,20,20,22,0.00
2013-8-2,90.5,90.5,90.5,26.6,26.6,26.6,10,10,10,29.95,29.95,20,20,22,0.00
2013-8-3,90.5,79.4,70.0,51.2,39.7,20.3,38,26,10,30.00,29.91,25,10,25,0.07
2013-8-4,95.9,82.1,68.9,49.5,34.6,15.4,39,20,10,30.01,29.93,30,9,30,0.00
2013-8-5,94.8,82.3,65.7,46.1,33.2,20.1,41,20,10,30.01,29.92,27,9,27,0.00
2013-8-6,91.0,77.1,69.4,27.0,22.6,19.4,16,13,10,29.99,29.98,20,8,24,0.00
2013-8-7,87.6,82.9,70.9,47.3,38.6,30.8,43,23,13,30.03,30.01,22,16,26,0.00
2013-8-8,87.8,81.2,69.1,52.9,36.4,26.0,48,22,11,30.00,29.93,27,12,27,0.00
2013-8-9,88.2,76.5,66.2,50.5,38.0,20.7,50,28,10,29.99,29.91,30,11,30,0.00
2013-8-10,89.1,77.4,65.5,56.0,49.5,33.0,55,39,22,30.02,29.96,23,9,23,0.00
2013-8-11,95.0,79.4,63.0,55.0,48.4,40.5,58,36,18,30.01,29.91,21,6,21,0.00
2013-8-12,97.7,81.4,62.8,53.3,47.9,40.9,56,34,15,29.99,29.92,20,5,20,0.00
2013-8-13,100.2,84.0,64.8,53.4,43.4,24.5,45,26,10,30.02,29.92,23,7,23,0.00
2013-8-14,101.1,86.2,68.5,48.7,39.2,30.7,37,20,10,30.00,29.90,21,6,21,0.00
2013-8-15,100.8,86.2,70.3,53.4,40.3,28.2,30,20,12,30.00,29.91,30,8,30,0.00
2013-8-16,98.4,87.7,77.7,61.8,53.4,44.9,39,31,22,30.02,29.95,30,10,30,0.00
2013-8-17,99.0,87.9,76.8,53.9,46.6,32.0,37,25,10,30.01,29.88,28,10,28,0.00
2013-8-18,102.6,86.3,68.9,65.2,52.5,44.6,56,33,18,30.01,29.85,22,5,22,0.00
2013-8-19,99.5,84.9,72.7,67.7,63.1,53.1,73,50,31,30.04,29.90,19,6,19,0.00
2013-8-20,98.6,85.2,71.1,60.7,52.0,41.1,54,34,17,29.97,29.89,25,7,25,0.00
2013-8-21,99.9,86.3,71.2,51.2,47.1,40.5,45,27,16,29.99,29.91,28,7,28,0.00
2013-8-22,98.1,87.1,73.0,52.1,44.9,32.8,33,24,16,30.00,29.89,30,8,30,0.00
2013-8-23,96.8,83.7,67.5,51.4,38.8,30.3,37,22,10,29.94,29.82,24,8,24,0.00
2013-8-24,95.7,80.8,62.1,45.4,35.9,25.1,49,23,10,29.95,29.83,32,7,32,0.00
2013-8-25,94.5,80.8,61.9,53.6,39.3,26.1,48,24,12,30.00,29.91,27,8,27,0.00
2013-8-26,92.5,78.4,64.2,68.7,58.4,36.7,67,51,24,30.05,29.92,26,5,26,0.00
2013-8-27,95.0,80.6,69.8,70.2,66.3,62.3,88,64,41,29.97,29.85,21,5,21,0.00
2013-8-28,99.3,83.7,69.3,66.6,63.4,58.8,78,52,34,29.99,29.89,27,7,27,0.00
2013-8-29,102.0,86.1,71.6,62.1,58.7,56.3,59,42,25,30.05,29.96,20,6,20,0.00
2013-8-30,98.4,88.4,72.0,70.7,63.4,54.3,56,44,33,30.08,29.98,19,6,19,0.00
2013-8-31,94.5,88.5,76.8,71.5,70.5,69.0,80,56,46,30.04,29.94,34,14,34,0.00
2013-9-1,92.1,82.7,75.9,71.1,67.6,64.2,81,62,43,30.00,29.92,27,11,27,0.00
2013-9-2,96.3,85.0,73.6,68.5,63.0,57.3,72,49,31,29.99,29.89,31,10,31,0.00
2013-9-3,96.3,86.1,75.7,63.8,60.6,55.9,60,43,32,30.00,29.91,29,8,29,0.00
2013-9-4,100.9,86.4,71.4,65.5,59.7,56.6,64,42,25,30.03,29.92,25,6,25,0.00
2013-9-5,99.3,87.4,73.8,62.5,57.5,53.9,57,38,24,30.00,29.91,25,7,25,0.00
2013-9-6,99.9,86.6,70.5,58.0,53.9,48.5,54,34,22,30.00,29.88,27,8,27,0.00
2013-9-7,99.9,85.8,70.0,53.3,48.7,44.5,49,29,17,29.99,29.88,25,7,25,0.00
2013-9-8,99.7,86.1,73.6,51.5,48.0,43.1,41,28,16,29.94,29.81,18,6,18,0.00
2013-9-9,97.2,83.3,74.1,59.5,54.1,46.6,60,38,22,29.93,29.77,23,8,23,0.00
2013-9-10,91.8,81.4,74.1,51.1,47.1,44.1,38,30,22,29.93,29.82,26,11,26,0.00
2013-9-11,90.9,81.0,72.1,54.3,46.9,40.6,41,31,21,29.99,29.93,23,11,23,0.00
2013-9-12,93.9,81.4,67.3,54.5,43.8,28.1,43,28,11,29.98,29.88,23,7,23,0.00
2013-9-13,97.0,85.6,65.5,54.0,50.1,45.6,51,31,21,29.93,29.79,14,4,14,0.00
2013-9-14,96.4,96.4,96.4,51.5,51.5,51.5,22,22,22,29.79,29.79,4,4,10,0.00
2013-9-15,96.4,96.4,96.4,51.5,51.5,51.5,22,22,22,29.79,29.79,4,4,10,0.00
2013-9-16,96.4,96.4,96.4,51.5,51.5,51.5,22,22,22,29.79,29.79,4,4,10,0.00
2013-9-17,96.4,96.4,96.4,51.5,51.5,51.5,22,22,22,29.79,29.79,4,4,10,0.00
2013-9-18,96.4,96.4,96.4,51.5,51.5,51.5,22,22,22,29.79,29.79,4,4,10,0.00
2013-9-19,96.4,89.6,70.3,51.6,44.9,31.8,36,22,11,29.92,29.79,17,5,17,0.00
2013-9-20,91.6,75.8,62.4,59.0,50.0,38.0,69,42,22,29.89,29.79,30,8,30,0.00
2013-9-21,76.5,67.2,59.0,58.8,54.8,47.1,87,66,44,29.89,29.81,30,12,30,0.00
2013-9-22,74.7,62.7,54.1,52.2,46.6,43.3,81,58,34,29.95,29.84,24,10,27,0.00
2013-9-23,88.7,69.6,50.4,50.1,44.0,38.9,74,45,18,30.03,29.93,16,3,16,0.00
2013-9-24,89.1,75.5,61.5,45.8,41.5,34.3,48,31,17,29.99,29.86,30,10,30,0.00
2013-9-25,77.4,67.3,58.3,58.3,48.9,45.2,70,52,38,29.87,29.72,28,13,28,0.00
2013-9-26,69.3,59.2,52.3,45.9,40.6,32.9,72,52,27,29.95,29.76,27,13,27,0.00
2013-9-27,75.4,64.0,44.8,40.7,33.2,28.8,67,36,18,30.09,29.94,21,6,21,0.00
2013-9-28,75.0,75.0,75.0,30.0,30.0,30.0,19,19,19,30.02,30.02,6,6,11,0.00
2013-9-29,75.0,75.0,75.0,30.0,30.0,30.0,19,19,19,30.02,30.02,6,6,11,0.00
2013-9-30,87.8,76.7,69.1,42.3,34.2,30.0,32,22,18,30.02,29.92,23,8,23,0.00
2013-10-1,87.1,73.5,58.3,55.3,46.2,36.6,60,39,25,29.96,29.88,23,7,23,0.00
2013-10-2,81.1,71.4,61.0,58.5,50.6,38.9,78,49,31,29.95,29.88,25,9,25,0.00
2013-10-3,79.9,66.2,52.9,46.2,38.2,22.9,60,38,14,29.97,29.83,24,7,24,0.00
2013-10-4,73.0,61.2,46.6,37.1,24.6,16.9,56,27,13,30.19,29.98,29,10,29,0.00
2013-10-5,77.7,62.7,44.6,31.6,25.1,18.2,52,26,11,30.30,30.19,30,8,30,0.00
2013-10-6,84.2,64.1,43.9,30.4,24.1,17.8,51,25,10,30.23,30.07,19,3,19,0.00
2013-10-7,84.2,67.9,52.0,35.2,25.6,19.7,36,22,10,30.07,29.91,24,8,24,0.00
2013-10-8,77.0,67.2,57.0,52.8,40.9,31.0,84,42,23,29.94,29.76,30,14,30,0.00
2013-10-9,58.5,52.3,46.4,51.6,48.1,43.3,96,86,63,29.80,29.66,32,12,32,0.05
2013-10-10,66.0,54.9,44.4,49.1,45.3,40.6,91,71,51,30.00,29.79,24,10,24,0.00
2013-10-11,75.4,64.8,47.1,47.8,44.0,41.8,83,51,31,30.07,29.98,13,5,13,0.00
2013-10-12,75.2,75.2,75.2,42.5,42.5,42.5,31,31,31,29.98,29.98,5,5,8,0.00
2013-10-13,75.2,75.2,75.2,42.5,42.5,42.5,31,31,31,29.98,29.98,5,5,8,0.00
2013-10-14,75.2,75.2,75.2,42.5,42.5,42.5,31,31,31,29.98,29.98,5,5,8,0.00
2013-10-15,75.2,75.2,75.2,42.5,42.5,42.5,31,31,31,29.98,29.98,5,5,8,0.00
2013-10-16,75.2,68.7,46.4,42.5,36.1,26.6,54,31,17,30.19,29.98,13,5,13,0.00
2013-10-17,82.0,63.5,45.5,41.2,34.6,28.1,56,36,18,30.11,29.96,12,3,12,0.00
2013-10-18,82.0,63.5,47.1,39.7,31.8,23.9,59,34,12,30.12,30.02,17,4,17,0.00
2013-10-19,84.2,65.1,44.6,35.4,28.4,20.6,51,28,10,30.14,30.03,12,2,12,0.00
2013-10-20,87.3,67.3,48.6,46.6,32.3,20.8,45,30,10,30.05,29.92,16,4,16,0.00
2013-10-21,85.5,65.4,47.7,38.0,30.1,20.6,54,30,10,30.06,29.96,14,3,14,0.00
2013-10-22,85.8,65.6,47.7,35.8,29.2,25.7,44,28,12,30.09,29.95,11,3,11,0.00
2013-10-23,84.9,67.1,49.6,47.2,33.0,26.4,47,31,13,30.00,29.90,13,3,13,0.00
2013-10-24,72.9,67.1,51.6,39.8,38.1,33.6,52,35,29,30.01,29.95,4,2,4,0.00
2013-10-25,72.9,72.9,72.9,38.8,38.8,38.8,29,29,29,30.01,30.01,2,2,2,0.00
2013-10-26,86.0,73.5,60.3,39.3,36.2,28.9,37,27,13,30.01,27.83,8,2,8,0.00
2013-10-27,81.1,64.3,52.9,52.4,39.8,30.4,89,43,20,31.71,27.48,34,9,34,0.00
2013-10-28,55.2,52.9,52.3,53.4,49.9,49.6,96,89,88,28.88,28.42,36,21,36,0.00
2013-10-29,52.7,52.7,52.7,49.6,49.6,49.6,89,89,89,28.42,28.42,21,21,27,0.00
2013-10-30,52.7,52.7,52.7,49.6,49.6,49.6,89,89,89,28.42,28.42,21,21,27,0.00
2013-10-31,52.7,52.7,52.7,49.6,49.6,49.6,89,89,89,28.42,28.42,21,21,27,0.00
2013-11-1,52.7,52.7,52.7,49.6,49.6,49.6,89,89,89,28.42,28.42,21,21,27,0.00
2013-11-2,52.7,52.7,52.7,49.6,49.6,49.6,89,89,89,28.42,28.42,21,21,27,0.00
2013-11-3,81.7,58.2,46.8,49.6,45.7,34.0,90,70,20,30.09,28.42,21,13,27,0.00
2013-11-4,86.4,57.6,36.7,47.4,33.8,18.2,90,50,10,29.91,27.88,33,4,33,0.00
2013-11-5,75.9,51.4,30.0,35.8,16.0,-0.6,87,35,10,28.61,26.95,22,6,22,0.00
2013-11-6,82.8,52.7,30.4,22.2,13.5,0.7,53,26,10,28.68,26.58,18,4,18,0.00
2013-11-7,97.2,58.4,36.0,31.3,19.0,9.2,48,26,10,29.23,26.79,11,2,11,0.00
2013-11-8,101.3,64.4,39.4,34.6,21.1,4.8,51,23,10,29.57,27.32,17,4,17,0.00
2013-11-9,95.0,63.6,43.2,30.4,22.6,2.3,45,24,10,29.78,27.82,11,3,11,0.00
2013-11-10,96.3,59.2,36.0,30.3,21.9,10.6,57,29,10,29.47,27.57,8,2,8,0.00
2013-11-11,93.6,60.4,36.0,30.0,23.0,14.9,56,30,10,29.52,27.25,11,3,11,0.00
2013-11-12,80.6,58.1,43.0,30.1,22.0,13.4,46,28,10,28.50,27.55,5,2,5,0.00
2013-11-13,99.0,63.3,39.7,32.7,23.8,10.5,50,27,10,29.69,27.25,9,2,9,0.00
2013-11-14,104.4,68.6,40.6,36.8,28.1,20.3,64,28,10,30.03,27.62,15,4,16,0.00
2013-11-15,77.4,60.0,46.9,49.6,41.4,27.2,83,53,29,29.43,27.44,21,9,21,0.00
2013-11-16,67.6,55.0,49.3,48.7,46.0,42.9,87,73,47,29.56,27.80,32,15,32,0.00
2013-11-17,49.3,49.3,49.3,44.3,44.3,44.3,83,83,83,27.97,27.97,10,10,15,0.00
2013-11-18,63.7,51.1,49.3,49.2,45.3,44.3,85,81,51,30.04,27.97,21,9,21,0.00
2013-11-19,65.5,56.4,50.0,64.3,44.8,40.0,97,67,41,30.05,28.34,24,10,24,0.00
2013-11-20,63.9,56.1,52.7,51.0,47.9,43.0,88,75,55,30.45,28.61,30,13,30,0.00
2013-11-21,54.9,52.1,51.8,51.7,51.4,50.2,99,97,85,29.88,28.46,11,2,11,0.13
2013-11-22,51.8,45.1,39.9,51.5,44.4,38.9,99,97,87,28.47,27.42,18,5,18,0.28
2013-11-23,46.9,42.9,33.6,42.8,40.8,33.1,99,92,78,28.87,27.32,14,5,14,0.05
2013-11-24,55.6,45.7,37.8,47.0,41.6,37.5,99,87,63,29.69,27.40,13,3,13,0.01
2013-11-25,61.7,47.4,35.2,44.4,39.6,34.0,97,77,44,29.49,27.22,11,3,11,0.00
2013-11-26,62.8,49.1,36.9,44.9,40.2,34.2,94,73,45,29.74,27.46,11,2,11,0.00
2013-11-27,60.6,49.6,40.8,44.3,41.1,36.8,88,74,50,29.64,27.82,10,2,10,0.00
2013-11-28,59.2,47.6,38.8,41.6,39.0,35.5,89,73,50,29.23,27.62,7,2,7,0.00
2013-11-29,52.7,47.6,41.9,44.7,41.3,36.9,91,79,67,29.06,27.53,5,2,5,0.04
2013-11-30,63.9,50.2,40.5,48.3,40.0,36.1,95,71,36,29.65,27.50,10,2,10,0.00
2013-12-1,65.3,49.5,37.0,42.6,36.3,32.2,84,63,33,29.95,27.56,12,3,12,0.00
2013-12-2,75.4,55.8,38.1,41.3,30.6,19.9,78,44,13,30.20,27.62,17,4,17,0.00
2013-12-3,63.5,54.6,39.9,50.1,36.6,26.2,96,55,29,30.62,28.47,35,13,35,0.02
2013-12-4,47.8,39.7,33.8,30.6,22.6,15.7,68,52,28,30.14,27.55,28,6,28,0.00
2013-12-5,46.9,36.2,26.2,24.0,19.1,13.9,70,52,28,29.43,27.27,10,2,10,0.00
2013-12-6,49.8,38.1,25.2,36.5,27.4,17.8,84,66,45,29.44,26.93,27,8,27,0.00
2013-12-7,44.4,38.7,33.4,40.9,32.1,20.5,99,78,57,29.84,27.12,34,17,34,0.01
2013-12-8,43.0,33.1,25.0,23.5,18.6,14.5,75,56,33,29.97,26.87,15,3,15,0.00
2013-12-9,40.5,32.0,20.7,17.0,6.8,-2.9,77,41,16,29.75,26.73,24,11,24,0.00
2013-12-10,46.9,31.2,19.0,11.7,5.4,-2.7,58,36,14,28.54,26.62,8,2,8,0.00
2013-12-11,53.4,35.8,22.6,17.0,11.9,6.0,61,40,17,30.05,26.87,8,2,8,0.00
2013-12-12,59.4,42.9,27.5,21.8,16.6,12.6,63,38,17,29.85,26.95,9,2,9,0.00
2013-12-13,63.9,51.3,35.4,23.5,15.6,6.0,50,26,10,31.26,27.78,18,4,18,0.02
2013-12-14,60.6,45.3,30.2,26.0,20.0,17.7,64,39,19,29.80,27.00,21,5,21,0.00
2013-12-15,63.1,46.3,31.6,27.1,23.0,20.0,64,42,20,30.58,27.14,9,2,9,0.00
2013-12-16,65.5,48.6,36.1,30.4,24.9,20.3,63,42,18,30.06,27.49,5,2,5,0.00
2013-12-17,68.7,51.5,38.1,31.1,26.5,21.0,62,41,17,29.74,27.32,6,2,6,0.00
2013-12-18,64.9,54.9,48.0,46.4,31.9,23.9,81,44,22,30.18,28.06,26,5,26,0.00
2013-12-19,51.4,48.4,38.1,43.8,39.7,-12.7,91,74,10,30.49,28.24,32,14,32,1.09
2013-12-20,53.8,40.0,0.0,35.8,31.1,21.9,92,74,32,30.03,27.70,9,2,9,0.00
2013-12-21,66.0,48.9,-1.3,41.4,32.4,-14.9,75,55,32,30.54,27.42,14,3,14,0.00
2013-12-22,61.5,45.9,33.4,38.5,33.0,28.8,85,63,37,30.28,27.24,8,2,8,0.00
2013-12-23,63.3,46.3,33.8,36.8,31.5,27.9,80,59,32,30.79,27.32,14,3,14,0.00
2013-12-24,65.7,47.7,34.3,37.1,32.7,28.2,80,59,32,30.32,27.82,8,2,8,0.00
2013-12-25,64.0,42.5,34.3,32.3,26.7,14.9,79,59,15,30.13,27.17,17,3,17,0.00
2013-12-26,63.3,45.6,31.1,27.3,18.5,11.7,64,38,14,30.64,27.86,10,3,10,0.00
2013-12-27,64.9,47.8,31.6,22.0,13.6,5.9,51,29,10,30.56,27.89,8,2,8,0.00
2013-12-28,74.1,53.1,39.4,20.6,14.4,5.9,39,24,10,30.44,27.86,18,4,18,0.00
2013-12-29,62.1,46.2,34.7,19.7,11.0,1.4,43,27,10,29.99,27.26,23,5,23,0.00
2013-12-30,63.7,44.8,30.2,19.4,11.2,3.9,45,29,10,29.60,27.04,7,2,7,0.00
2013-12-31,66.9,46.8,32.0,21.5,14.8,7.9,49,31,10,29.68,27.15,8,2,8,0.00
2014-1-1,65.7,46.8,32.0,20.9,16.3,9.6,52,32,12,29.52,27.07,8,2,8,0.00
2014-1-2,66.6,48.9,34.7,27.2,23.4,19.5,56,39,20,30.16,27.50,8,2,8,0.00